Главная страница
METAR-TAF:

METAR-TAF

Аэропорты :

Cumberland, Мэриленд, США

широта: 39-36-56N, долгота: 078-45-39W, высота над уровнем моря: 236 м

Текущие метеонаблюдения

Эта сводка был подготовлена 24 минут назад, в 21:40 UTC
Ветер 12 Узел от западный с порывами до 28 Узел
Температура 29°C
Влажность 48%
Давление 1016 hPa
Видимость: 16.1 км
ясное небо

METAR: KCBE 232140Z AUTO 27012G28KT 10SM CLR 29/17 A3001 RMK AO2 T02860172

Время: 18:04 (22:04 UTC)


TAF: отсутствует

Метеонаблюдения и прогнозы для более 4000 аэропортов (сводки METAR и TAF).

Имеющиеся станции представлены на карте желтыми и красными точками.

Чтобы увидеть название станции, наведите на нее мышь.

Затем щелкните, чтобы увидеть метеонаблюдения и метеопрогнозы.

Управление картой: чтобы увеличить масштаб, щелкните зеленые кнопки с черным крестиком; чтобы уменьшить масштаб, щелкните зеленую кнопку с тире; для просмотра соседних карт щелкайте зеленые стрелки.


METAR-TAF: